createdAt,value
2018-09-26T00:00:09.427Z,0.00
2018-09-26T00:01:09.380Z,0.00
2018-09-26T00:02:09.357Z,0.00
2018-09-26T00:03:09.363Z,0.00
2018-09-26T00:04:09.460Z,0.00
2018-09-26T00:05:09.387Z,0.00
2018-09-26T00:06:09.374Z,0.00
2018-09-26T00:07:09.353Z,0.00
2018-09-26T00:08:09.324Z,0.00
2018-09-26T00:09:09.320Z,0.00
2018-09-26T00:10:09.375Z,0.00
2018-09-26T00:11:09.372Z,0.00
2018-09-26T00:12:09.303Z,0.00
2018-09-26T00:13:09.314Z,0.00
2018-09-26T00:14:09.278Z,0.00
2018-09-26T00:15:09.269Z,0.00
2018-09-26T00:16:09.327Z,0.00
2018-09-26T00:17:09.265Z,0.00
2018-09-26T00:18:10.940Z,0.00
2018-09-26T00:19:09.252Z,0.00
2018-09-26T00:20:09.377Z,0.00
2018-09-26T00:21:09.243Z,0.00
2018-09-26T00:22:09.257Z,0.00
2018-09-26T00:23:10.944Z,0.00
2018-09-26T00:24:09.272Z,0.00
2018-09-26T00:25:09.247Z,0.00
2018-09-26T00:26:12.026Z,0.00
2018-09-26T00:27:11.007Z,0.00
2018-09-26T00:28:09.197Z,0.00
2018-09-26T00:29:09.260Z,0.00
2018-09-26T00:30:09.172Z,0.00
2018-09-26T00:31:09.203Z,0.00
2018-09-26T00:32:09.155Z,0.00
2018-09-26T00:33:09.183Z,0.00
2018-09-26T00:34:09.162Z,0.00
2018-09-26T00:35:09.150Z,0.00
2018-09-26T00:36:09.375Z,0.00
2018-09-26T00:37:09.272Z,0.00
2018-09-26T00:38:09.245Z,0.00
2018-09-26T00:39:09.201Z,0.00
2018-09-26T00:40:09.130Z,0.00
2018-09-26T00:41:09.149Z,0.00
2018-09-26T00:42:09.105Z,0.00
2018-09-26T00:43:10.955Z,0.00
2018-09-26T00:44:12.001Z,0.00
2018-09-26T00:45:09.181Z,0.00
2018-09-26T00:46:10.964Z,0.00
2018-09-26T00:47:12.014Z,0.00
2018-09-26T00:48:09.198Z,0.00
2018-09-26T00:49:10.159Z,0.00
2018-09-26T00:50:09.105Z,0.00
2018-09-26T00:51:09.197Z,0.00
2018-09-26T00:52:09.096Z,0.00
2018-09-26T00:53:09.019Z,0.00
2018-09-26T00:54:11.995Z,0.00
2018-09-26T00:55:09.023Z,0.00
2018-09-26T00:56:09.023Z,0.00
2018-09-26T00:57:10.150Z,0.00
2018-09-26T00:58:20.977Z,0.00
2018-09-26T00:59:11.305Z,0.00
2018-09-26T01:00:09.941Z,0.00
2018-09-26T01:01:10.884Z,0.00
2018-09-26T01:02:11.022Z,0.00
2018-09-26T01:03:10.400Z,0.00
2018-09-26T01:04:10.897Z,0.00
2018-09-26T01:05:12.392Z,0.00
2018-09-26T01:06:10.904Z,0.00
2018-09-26T01:07:10.386Z,0.00
2018-09-26T01:08:09.948Z,0.00
2018-09-26T01:09:12.545Z,0.00
2018-09-26T01:10:09.928Z,0.00
2018-09-26T01:11:11.472Z,0.00
2018-09-26T01:12:10.333Z,0.00
2018-09-26T01:13:11.469Z,0.00
2018-09-26T01:14:10.876Z,0.00
2018-09-26T01:15:09.055Z,0.00
2018-09-26T01:16:11.590Z,0.00
2018-09-26T01:17:11.559Z,0.00
2018-09-26T01:18:18.126Z,0.00
2018-09-26T01:35:56.223Z,0.00
2018-09-26T01:36:54.338Z,0.00
2018-09-26T01:41:25.360Z,0.00
2018-09-26T01:43:28.153Z,0.00
2018-09-26T01:45:46.769Z,0.00
2018-09-26T01:46:47.243Z,0.00
2018-09-26T01:47:54.993Z,0.00
2018-09-26T01:51:15.600Z,0.00
2018-09-26T01:53:41.657Z,0.00
2018-09-26T01:56:16.577Z,0.00
2018-09-26T01:57:38.185Z,0.00
2018-09-26T01:58:13.048Z,0.00
2018-09-26T02:02:14.175Z,0.00
2018-09-26T02:04:51.981Z,0.00
2018-09-26T02:09:16.916Z,0.00
2018-09-26T02:16:00.732Z,0.00
2018-09-26T02:18:29.696Z,0.00
2018-09-26T02:21:25.849Z,0.00
2018-09-26T02:25:25.302Z,0.00
2018-09-26T02:26:31.772Z,0.00
2018-09-26T02:28:22.794Z,0.00
2018-09-26T02:29:17.971Z,0.00
2018-09-26T02:30:18.804Z,0.00
2018-09-26T02:31:19.367Z,0.00
2018-09-26T02:33:43.176Z,0.00
2018-09-26T02:34:42.200Z,0.00
2018-09-26T02:35:42.562Z,0.00
2018-09-26T02:36:42.111Z,0.00
2018-09-26T02:37:40.591Z,0.00
2018-09-26T02:38:39.883Z,0.00
2018-09-26T02:39:39.354Z,0.00
2018-09-26T02:40:39.340Z,0.00
2018-09-26T02:41:39.343Z,0.00
2018-09-26T02:42:38.814Z,0.00
2018-09-26T02:43:39.338Z,0.00
2018-09-26T02:44:41.553Z,0.00
2018-09-26T02:45:39.812Z,0.00
2018-09-26T02:46:39.762Z,0.00
2018-09-26T02:49:04.833Z,0.00
2018-09-26T02:50:05.276Z,0.00
2018-09-26T02:51:05.310Z,0.00
2018-09-26T02:52:06.409Z,0.00
2018-09-26T02:53:05.280Z,0.00
2018-09-26T02:54:05.881Z,0.00
2018-09-26T02:55:05.795Z,0.00
2018-09-26T02:56:05.900Z,0.00
2018-09-26T02:57:05.284Z,0.00
2018-09-26T02:58:05.294Z,0.00
2018-09-26T02:59:05.398Z,0.00
2018-09-26T03:00:05.405Z,0.00
2018-09-26T03:01:04.763Z,0.00
2018-09-26T03:02:05.881Z,0.00
2018-09-26T03:03:05.356Z,0.00
2018-09-26T03:04:05.745Z,0.00
2018-09-26T03:05:05.372Z,0.00
2018-09-26T03:06:05.223Z,0.00
2018-09-26T03:07:05.167Z,0.00
2018-09-26T03:08:05.363Z,0.00
2018-09-26T03:09:05.735Z,0.00
2018-09-26T03:10:05.389Z,0.00
2018-09-26T03:11:06.370Z,0.00
2018-09-26T03:12:05.372Z,0.00
2018-09-26T03:13:05.393Z,0.00
2018-09-26T03:14:05.389Z,0.00
2018-09-26T03:15:05.657Z,0.00
2018-09-26T03:16:05.163Z,0.00
2018-09-26T03:17:05.359Z,0.00
2018-09-26T03:18:04.414Z,0.00
2018-09-26T03:19:04.182Z,0.00
2018-09-26T03:20:04.201Z,0.00
2018-09-26T03:21:04.179Z,0.00
2018-09-26T03:22:06.109Z,0.00
2018-09-26T03:23:04.226Z,0.00
2018-09-26T03:24:04.232Z,0.00
2018-09-26T03:25:04.164Z,0.00
2018-09-26T03:26:04.323Z,0.00
2018-09-26T03:28:30.344Z,0.00
2018-09-26T03:29:28.744Z,0.00
2018-09-26T03:31:27.547Z,0.00
2018-09-26T03:32:23.850Z,0.00
2018-09-26T03:33:26.200Z,0.00
2018-09-26T03:36:57.542Z,0.00
2018-09-26T03:37:55.836Z,0.00
2018-09-26T03:38:56.896Z,0.00
2018-09-26T03:45:03.433Z,0.00
2018-09-26T03:45:44.862Z,0.00
2018-09-26T03:46:45.817Z,0.00
2018-09-26T03:47:44.779Z,0.00
2018-09-26T03:48:46.323Z,0.00
2018-09-26T03:49:44.805Z,0.00
2018-09-26T03:50:44.789Z,0.00
2018-09-26T03:51:45.814Z,0.00
2018-09-26T03:52:44.764Z,0.00
2018-09-26T03:53:45.224Z,0.00
2018-09-26T03:54:45.870Z,0.00
2018-09-26T03:55:45.261Z,0.00
2018-09-26T03:56:45.210Z,0.00
2018-09-26T03:57:44.699Z,0.00
2018-09-26T03:58:45.322Z,0.00
2018-09-26T03:59:48.984Z,0.00
2018-09-26T04:00:44.661Z,0.00
2018-09-26T04:03:30.568Z,0.00
2018-09-26T04:04:29.136Z,0.00
2018-09-26T04:06:37.403Z,0.00
2018-09-26T04:07:22.885Z,0.00
2018-09-26T04:09:25.710Z,0.00
2018-09-26T04:10:16.928Z,0.00
2018-09-26T04:11:18.776Z,0.00
2018-09-26T04:12:20.301Z,0.00
2018-09-26T04:13:18.744Z,0.00
2018-09-26T04:14:30.813Z,0.00
2018-09-26T04:17:11.278Z,0.00
2018-09-26T04:20:02.688Z,0.00
2018-09-26T04:20:39.219Z,0.00
2018-09-26T04:21:40.692Z,0.00
2018-09-26T04:22:41.123Z,0.00
2018-09-26T04:23:46.778Z,0.00
2018-09-26T04:26:19.648Z,0.00
2018-09-26T04:27:30.259Z,0.00
2018-09-26T04:47:33.857Z,0.00
2018-09-26T04:48:38.972Z,0.00
2018-09-26T04:49:33.039Z,0.00
2018-09-26T04:50:32.538Z,0.00
2018-09-26T04:51:32.491Z,0.00
2018-09-26T04:54:27.053Z,0.00
2018-09-26T04:57:39.518Z,0.00
2018-09-26T04:58:41.654Z,0.00
2018-09-26T05:00:43.686Z,0.00
2018-09-26T05:01:29.302Z,0.00
2018-09-26T05:03:34.658Z,0.00
2018-09-26T05:04:25.793Z,0.00
2018-09-26T05:07:13.112Z,0.00
2018-09-26T05:08:13.412Z,0.00
2018-09-26T05:10:06.604Z,0.00
2018-09-26T05:11:06.546Z,0.00
2018-09-26T05:13:00.034Z,5.63
2018-09-26T05:14:00.248Z,5.63
2018-09-26T05:14:59.945Z,5.63
2018-09-26T05:16:07.167Z,5.63
2018-09-26T05:17:55.009Z,5.63
2018-09-26T05:18:53.927Z,5.63
2018-09-26T05:20:46.679Z,11.25
2018-09-26T05:21:46.663Z,11.25
2018-09-26T05:22:49.736Z,11.25
2018-09-26T05:23:55.839Z,11.25
2018-09-26T05:25:40.476Z,11.25
2018-09-26T05:26:41.312Z,16.88
2018-09-26T05:27:40.288Z,16.88
2018-09-26T05:28:42.114Z,16.88
2018-09-26T05:29:40.420Z,22.50
2018-09-26T05:30:40.231Z,22.50
2018-09-26T05:31:40.212Z,22.50
2018-09-26T05:32:40.261Z,22.50
2018-09-26T05:33:42.083Z,22.50
2018-09-26T05:34:42.030Z,22.50
2018-09-26T05:35:40.194Z,22.50
2018-09-26T05:36:40.178Z,22.50
2018-09-26T05:37:40.167Z,28.13
2018-09-26T05:38:40.160Z,28.13
2018-09-26T05:39:40.158Z,28.13
2018-09-26T05:40:40.145Z,28.13
2018-09-26T05:41:40.191Z,28.13
2018-09-26T05:42:40.172Z,28.13
2018-09-26T05:43:40.125Z,33.75
2018-09-26T05:44:40.119Z,33.75
2018-09-26T05:45:40.114Z,33.75
2018-09-26T05:46:40.110Z,33.75
2018-09-26T05:47:40.102Z,33.75
2018-09-26T05:48:40.107Z,33.75
2018-09-26T05:49:40.090Z,33.75
2018-09-26T05:50:40.164Z,39.38
2018-09-26T05:51:40.077Z,39.38
2018-09-26T05:52:40.071Z,39.38
2018-09-26T05:53:40.065Z,45.00
2018-09-26T05:54:40.058Z,45.00
2018-09-26T05:55:40.052Z,45.00
2018-09-26T05:56:40.047Z,45.00
2018-09-26T05:57:40.054Z,45.00
2018-09-26T05:58:40.040Z,45.00
2018-09-26T05:59:40.084Z,50.63
2018-09-26T06:00:40.023Z,50.63
2018-09-26T06:01:40.016Z,50.63
2018-09-26T06:02:40.016Z,50.63
2018-09-26T06:03:40.007Z,50.63
2018-09-26T06:04:39.997Z,50.63
2018-09-26T06:05:39.993Z,50.63
2018-09-26T06:06:39.986Z,50.63
2018-09-26T06:07:39.980Z,50.63
2018-09-26T06:08:39.975Z,50.63
2018-09-26T06:09:39.970Z,50.63
2018-09-26T06:10:39.967Z,50.63
2018-09-26T06:11:39.961Z,50.63
2018-09-26T06:12:39.952Z,50.63
2018-09-26T06:13:39.950Z,50.63
2018-09-26T06:14:39.941Z,50.63
2018-09-26T06:15:39.957Z,50.63
2018-09-26T06:16:39.933Z,50.63
2018-09-26T06:17:39.929Z,50.63
2018-09-26T06:18:39.919Z,50.63
2018-09-26T06:19:39.914Z,56.25
2018-09-26T06:20:39.913Z,56.25
2018-09-26T06:21:39.905Z,56.25
2018-09-26T06:22:39.920Z,56.25
2018-09-26T06:23:39.906Z,56.25
2018-09-26T06:24:39.903Z,61.88
2018-09-26T06:25:39.887Z,61.88
2018-09-26T06:26:39.881Z,61.88
2018-09-26T06:27:39.880Z,61.88
2018-09-26T06:28:39.874Z,61.88
2018-09-26T06:29:39.864Z,67.50
2018-09-26T06:30:39.861Z,78.75
2018-09-26T06:31:39.855Z,95.63
2018-09-26T06:32:39.862Z,106.88
2018-09-26T06:33:39.850Z,95.63
2018-09-26T06:34:39.843Z,95.63
2018-09-26T06:35:39.839Z,135.00
2018-09-26T06:36:39.840Z,146.25
2018-09-26T06:37:39.832Z,157.50
2018-09-26T06:38:39.831Z,168.75
2018-09-26T06:39:39.823Z,191.25
2018-09-26T06:40:39.822Z,230.63
2018-09-26T06:41:39.817Z,258.75
2018-09-26T06:42:39.833Z,236.25
2018-09-26T06:43:39.836Z,275.63
2018-09-26T06:44:39.807Z,270.00
2018-09-26T06:45:39.808Z,275.63
2018-09-26T06:46:39.805Z,264.38
2018-09-26T06:47:39.803Z,286.88
2018-09-26T06:48:39.800Z,286.88
2018-09-26T06:49:47.040Z,286.88
2018-09-26T06:51:32.714Z,281.25
2018-09-26T06:52:40.237Z,264.38
2018-09-26T06:54:25.598Z,264.38
2018-09-26T06:55:25.539Z,258.75
2018-09-26T06:57:18.651Z,258.75
2018-09-26T06:58:18.627Z,264.38
2018-09-26T07:00:12.044Z,275.63
2018-09-26T07:01:12.021Z,309.38
2018-09-26T07:03:05.410Z,320.63
2018-09-26T07:04:05.410Z,331.88
2018-09-26T07:05:58.291Z,365.63
2018-09-26T07:06:58.259Z,393.75
2018-09-26T07:08:51.212Z,489.38
2018-09-26T07:09:51.182Z,562.50
2018-09-26T07:11:44.041Z,759.38
2018-09-26T07:12:44.035Z,781.88
2018-09-26T07:13:44.022Z,759.38
2018-09-26T07:14:44.029Z,759.38
2018-09-26T07:15:44.031Z,793.13
2018-09-26T07:16:44.033Z,838.13
2018-09-26T07:17:44.082Z,838.13
2018-09-26T07:18:44.039Z,838.13
2018-09-26T07:19:44.041Z,832.50
2018-09-26T07:20:44.045Z,933.75
2018-09-26T07:21:44.045Z,883.13
2018-09-26T07:22:44.051Z,905.63
2018-09-26T07:23:44.061Z,945.00
2018-09-26T07:24:44.068Z,984.38
2018-09-26T07:25:44.062Z,1057.50
2018-09-26T07:26:44.069Z,1074.38
2018-09-26T07:27:44.073Z,1091.25
2018-09-26T07:28:44.074Z,1125.00
2018-09-26T07:29:44.087Z,1186.88
2018-09-26T07:30:44.085Z,1203.75
2018-09-26T07:31:44.092Z,1260.00
2018-09-26T07:32:44.091Z,1501.88
2018-09-26T07:33:44.096Z,1591.88
2018-09-26T07:34:44.100Z,1541.25
2018-09-26T07:35:44.103Z,1485.00
2018-09-26T07:36:44.108Z,1507.50
2018-09-26T07:37:44.118Z,1535.63
2018-09-26T07:38:44.125Z,1620.00
2018-09-26T07:39:44.122Z,1485.00
2018-09-26T07:40:44.125Z,1428.75
2018-09-26T07:41:44.130Z,1440.00
2018-09-26T07:42:44.137Z,1468.13
2018-09-26T07:43:44.152Z,1411.88
2018-09-26T07:44:44.146Z,1411.88
2018-09-26T07:45:44.172Z,1428.75
2018-09-26T07:46:44.155Z,1389.38
2018-09-26T07:47:44.159Z,1361.25
2018-09-26T07:48:44.162Z,1260.00
2018-09-26T07:49:44.166Z,1192.50
2018-09-26T07:50:44.170Z,1203.75
2018-09-26T07:51:44.175Z,1136.25
2018-09-26T07:52:44.183Z,1175.63
2018-09-26T07:53:44.183Z,1175.63
2018-09-26T07:54:44.209Z,1209.38
2018-09-26T07:55:44.194Z,1113.75
2018-09-26T07:56:44.198Z,1096.88
2018-09-26T07:57:44.202Z,1035.00
2018-09-26T07:58:44.211Z,1068.75
2018-09-26T07:59:44.219Z,1012.50
2018-09-26T08:00:44.219Z,1040.63
2018-09-26T08:01:44.247Z,1108.13
2018-09-26T08:02:44.231Z,911.25
2018-09-26T08:03:44.230Z,1035.00
2018-09-26T08:04:44.239Z,984.38
2018-09-26T08:05:44.244Z,1023.75
2018-09-26T08:06:44.251Z,1012.50
2018-09-26T08:07:44.253Z,984.38
2018-09-26T08:08:44.260Z,933.75
2018-09-26T08:09:44.267Z,1012.50
2018-09-26T08:10:44.283Z,1080.00
2018-09-26T08:11:44.332Z,1068.75
2018-09-26T08:12:44.281Z,1091.25
2018-09-26T08:13:44.290Z,1029.38
2018-09-26T08:14:44.298Z,1063.13
2018-09-26T08:15:44.298Z,1085.63
2018-09-26T08:16:44.325Z,1051.88
2018-09-26T08:17:44.320Z,1080.00
2018-09-26T08:18:44.456Z,1035.00
2018-09-26T08:19:44.323Z,1051.88
2018-09-26T08:20:44.328Z,1001.25
2018-09-26T08:21:44.334Z,978.75
2018-09-26T08:22:44.763Z,1051.88
2018-09-26T08:23:44.379Z,1158.75
2018-09-26T08:24:44.362Z,1231.88
2018-09-26T08:25:44.357Z,1271.25
2018-09-26T08:26:44.365Z,1248.75
2018-09-26T08:27:44.401Z,1243.13
2018-09-26T08:28:44.384Z,1260.00
2018-09-26T08:29:44.411Z,1383.75
2018-09-26T08:30:44.436Z,1552.50
2018-09-26T08:31:44.420Z,1614.38
2018-09-26T08:32:44.432Z,1636.88
2018-09-26T08:33:44.408Z,1631.25
2018-09-26T08:34:44.419Z,1552.50
2018-09-26T08:35:44.422Z,1524.38
2018-09-26T08:36:44.431Z,1586.25
2018-09-26T08:37:44.440Z,1580.63
2018-09-26T08:38:44.447Z,1541.25
2018-09-26T08:39:44.449Z,1541.25
2018-09-26T08:40:44.460Z,1507.50
2018-09-26T08:41:44.466Z,1451.25
2018-09-26T08:42:44.474Z,1338.75
2018-09-26T08:43:44.727Z,1023.75
2018-09-26T08:44:44.489Z,1096.88
2018-09-26T08:45:44.497Z,1091.25
2018-09-26T08:46:44.504Z,1051.88
2018-09-26T08:47:44.516Z,1001.25
2018-09-26T08:48:44.519Z,1006.88
2018-09-26T08:49:44.532Z,1035.00
2018-09-26T08:50:44.536Z,894.38
2018-09-26T08:51:44.543Z,1018.13
2018-09-26T08:52:44.547Z,1051.88
2018-09-26T08:53:44.583Z,1018.13
2018-09-26T08:54:44.561Z,928.13
2018-09-26T08:55:44.572Z,1091.25
2018-09-26T08:56:44.577Z,1057.50
2018-09-26T08:57:44.582Z,1035.00
2018-09-26T08:58:44.592Z,1023.75
2018-09-26T08:59:44.621Z,1029.38
2018-09-26T09:00:44.608Z,1018.13
2018-09-26T09:01:44.629Z,1006.88
2018-09-26T09:02:44.630Z,922.50
2018-09-26T09:03:44.646Z,1006.88
2018-09-26T09:04:44.636Z,1023.75
2018-09-26T09:05:44.665Z,1006.88
2018-09-26T09:06:44.680Z,1018.13
2018-09-26T09:07:44.669Z,978.75
2018-09-26T09:08:44.723Z,967.50
2018-09-26T09:09:44.689Z,984.38
2018-09-26T09:10:44.691Z,1018.13
2018-09-26T09:11:44.719Z,967.50
2018-09-26T09:12:44.701Z,990.00
2018-09-26T09:13:44.743Z,1012.50
2018-09-26T09:14:44.897Z,984.38
2018-09-26T09:15:44.719Z,860.63
2018-09-26T09:16:44.741Z,883.13
2018-09-26T09:17:44.779Z,787.50
2018-09-26T09:18:44.741Z,821.25
2018-09-26T09:19:44.779Z,748.13
2018-09-26T09:20:44.782Z,708.75
2018-09-26T09:21:44.763Z,776.25
2018-09-26T09:22:44.769Z,725.63
2018-09-26T09:23:44.812Z,708.75
2018-09-26T09:24:44.808Z,691.88
2018-09-26T09:25:44.790Z,742.50
2018-09-26T09:26:44.798Z,703.13
2018-09-26T09:27:44.907Z,663.75
2018-09-26T09:28:44.839Z,691.88
2018-09-26T09:29:44.817Z,697.50
2018-09-26T09:30:44.822Z,630.00
2018-09-26T09:31:44.832Z,613.13
2018-09-26T09:32:44.834Z,585.00
2018-09-26T09:33:44.839Z,703.13
2018-09-26T09:34:44.873Z,742.50
2018-09-26T09:35:44.857Z,765.00
2018-09-26T09:36:44.872Z,798.75
2018-09-26T09:37:44.867Z,759.38
2018-09-26T09:38:44.872Z,720.00
2018-09-26T09:39:44.881Z,703.13
2018-09-26T09:40:44.886Z,765.00
2018-09-26T09:41:44.889Z,1271.25
2018-09-26T09:42:44.895Z,1445.63
2018-09-26T09:43:44.901Z,1096.88
2018-09-26T09:44:44.907Z,933.75
2018-09-26T09:45:44.920Z,776.25
2018-09-26T09:46:44.917Z,950.63
2018-09-26T09:47:44.924Z,900.00
2018-09-26T09:48:44.937Z,916.88
2018-09-26T09:49:44.934Z,933.75
2018-09-26T09:50:44.940Z,832.50
2018-09-26T09:51:45.010Z,804.38
2018-09-26T09:52:44.975Z,669.38
2018-09-26T09:53:44.957Z,495.00
2018-09-26T09:54:44.962Z,354.38
2018-09-26T09:55:44.965Z,315.00
2018-09-26T09:56:44.973Z,292.50
2018-09-26T09:57:44.992Z,281.25
2018-09-26T09:58:44.982Z,275.63
2018-09-26T09:59:45.001Z,275.63
2018-09-26T10:00:44.990Z,275.63
2018-09-26T10:01:44.998Z,275.63
2018-09-26T10:02:45.086Z,275.63
2018-09-26T10:03:45.023Z,270.00
2018-09-26T10:04:45.009Z,264.38
2018-09-26T10:05:45.026Z,270.00
2018-09-26T10:06:45.013Z,270.00
2018-09-26T10:07:45.018Z,275.63
2018-09-26T10:08:45.070Z,281.25
2018-09-26T10:09:45.025Z,286.88
2018-09-26T10:10:45.031Z,281.25
2018-09-26T10:11:45.036Z,281.25
2018-09-26T10:12:45.037Z,275.63
2018-09-26T10:13:45.044Z,292.50
2018-09-26T10:14:45.042Z,292.50
2018-09-26T10:15:45.046Z,292.50
2018-09-26T10:16:45.050Z,286.88
2018-09-26T10:17:45.057Z,286.88
2018-09-26T10:18:45.058Z,286.88
2018-09-26T10:19:45.060Z,292.50
2018-09-26T10:20:45.066Z,286.88
2018-09-26T10:21:45.068Z,286.88
2018-09-26T10:22:45.075Z,286.88
2018-09-26T10:23:45.075Z,286.88
2018-09-26T10:24:45.082Z,292.50
2018-09-26T10:25:45.081Z,292.50
2018-09-26T10:26:45.086Z,292.50
2018-09-26T10:27:45.087Z,298.13
2018-09-26T10:28:45.088Z,298.13
2018-09-26T10:29:45.100Z,298.13
2018-09-26T10:30:45.100Z,298.13
2018-09-26T10:31:45.110Z,298.13
2018-09-26T10:32:45.105Z,298.13
2018-09-26T10:33:45.113Z,292.50
2018-09-26T10:34:45.152Z,286.88
2018-09-26T10:35:45.117Z,292.50
2018-09-26T10:36:45.119Z,281.25
2018-09-26T10:37:45.124Z,275.63
2018-09-26T10:38:45.127Z,275.63
2018-09-26T10:39:45.132Z,270.00
2018-09-26T10:40:45.167Z,270.00
2018-09-26T10:41:45.161Z,275.63
2018-09-26T10:42:45.145Z,270.00
2018-09-26T10:43:45.144Z,264.38
2018-09-26T10:44:45.149Z,264.38
2018-09-26T10:45:45.162Z,264.38
2018-09-26T10:46:45.265Z,264.38
2018-09-26T10:47:45.169Z,258.75
2018-09-26T10:48:45.167Z,253.13
2018-09-26T10:49:45.169Z,247.50
2018-09-26T10:50:45.175Z,253.13
2018-09-26T10:51:45.177Z,247.50
2018-09-26T10:52:45.205Z,247.50
2018-09-26T10:53:45.183Z,241.88
2018-09-26T10:54:45.191Z,247.50
2018-09-26T10:55:45.225Z,247.50
2018-09-26T10:56:45.281Z,241.88
2018-09-26T10:57:46.082Z,247.50
2018-09-26T10:58:45.206Z,241.88
2018-09-26T10:59:45.216Z,241.88
2018-09-26T11:00:45.213Z,247.50
2018-09-26T11:01:45.223Z,241.88
2018-09-26T11:02:45.228Z,247.50
2018-09-26T11:03:45.427Z,247.50
2018-09-26T11:04:45.230Z,253.13
2018-09-26T11:05:45.247Z,247.50
2018-09-26T11:06:45.236Z,247.50
2018-09-26T11:07:45.241Z,258.75
2018-09-26T11:08:45.246Z,258.75
2018-09-26T11:09:45.249Z,253.13
2018-09-26T11:10:45.253Z,253.13
2018-09-26T11:11:45.257Z,258.75
2018-09-26T11:12:46.677Z,258.75
2018-09-26T11:13:45.281Z,258.75
2018-09-26T11:14:45.268Z,253.13
2018-09-26T11:15:45.287Z,253.13
2018-09-26T11:16:45.277Z,253.13
2018-09-26T11:17:45.281Z,247.50
2018-09-26T11:18:45.289Z,241.88
2018-09-26T11:19:45.301Z,247.50
2018-09-26T11:20:45.316Z,241.88
2018-09-26T11:21:45.297Z,247.50
2018-09-26T11:22:45.301Z,241.88
2018-09-26T11:23:45.303Z,236.25
2018-09-26T11:24:52.869Z,236.25
2018-09-26T11:26:38.733Z,236.25
2018-09-26T11:27:38.234Z,225.00
2018-09-26T11:29:31.364Z,225.00
2018-09-26T11:30:31.083Z,230.63
2018-09-26T11:32:24.371Z,230.63
2018-09-26T11:33:24.184Z,225.00
2018-09-26T11:35:17.264Z,208.13
2018-09-26T11:36:16.897Z,208.13
2018-09-26T11:38:10.687Z,225.00
2018-09-26T11:39:10.431Z,213.75
2018-09-26T11:41:04.087Z,202.50
2018-09-26T11:42:03.953Z,208.13
2018-09-26T11:43:57.040Z,208.13
2018-09-26T11:44:56.645Z,202.50
2018-09-26T11:46:49.803Z,202.50
2018-09-26T11:47:49.596Z,202.50
2018-09-26T11:49:42.749Z,196.88
2018-09-26T11:50:42.716Z,196.88
2018-09-26T11:52:35.653Z,196.88
2018-09-26T11:53:35.476Z,196.88
2018-09-26T11:55:28.539Z,191.25
2018-09-26T11:56:28.624Z,191.25
2018-09-26T11:58:21.646Z,185.63
2018-09-26T11:59:21.374Z,185.63
2018-09-26T12:01:14.965Z,180.00
2018-09-26T12:02:14.943Z,180.00
2018-09-26T12:04:08.342Z,174.38
2018-09-26T12:05:07.791Z,168.75
2018-09-26T12:07:01.293Z,163.13
2018-09-26T12:08:00.655Z,163.13
2018-09-26T12:09:54.123Z,157.50
2018-09-26T12:10:54.574Z,157.50
2018-09-26T12:12:48.065Z,157.50
2018-09-26T12:13:47.399Z,151.88
2018-09-26T12:15:39.332Z,151.88
2018-09-26T12:16:39.802Z,151.88
2018-09-26T12:18:33.038Z,151.88
2018-09-26T12:19:33.035Z,151.88
2018-09-26T12:21:30.537Z,151.88
2018-09-26T12:22:25.644Z,151.88
2018-09-26T12:23:25.534Z,151.88
2018-09-26T12:24:26.090Z,151.88
2018-09-26T12:25:25.846Z,151.88
2018-09-26T12:26:25.468Z,151.88
2018-09-26T12:27:25.476Z,151.88
2018-09-26T12:28:25.555Z,146.25
2018-09-26T12:29:25.477Z,146.25
2018-09-26T12:30:25.513Z,146.25
2018-09-26T12:31:25.483Z,146.25
2018-09-26T12:32:25.481Z,146.25
2018-09-26T12:33:25.488Z,146.25
2018-09-26T12:34:25.551Z,146.25
2018-09-26T12:35:25.492Z,146.25
2018-09-26T12:36:25.559Z,146.25
2018-09-26T12:37:25.525Z,146.25
2018-09-26T12:38:25.502Z,146.25
2018-09-26T12:39:25.502Z,146.25
2018-09-26T12:40:25.601Z,140.63
2018-09-26T12:41:25.583Z,135.00
2018-09-26T12:42:25.641Z,135.00
2018-09-26T12:43:25.514Z,135.00
2018-09-26T12:44:25.514Z,129.38
2018-09-26T12:45:25.518Z,129.38
2018-09-26T12:46:25.613Z,129.38
2018-09-26T12:47:25.692Z,129.38
2018-09-26T12:48:25.571Z,123.75
2018-09-26T12:49:25.534Z,123.75
2018-09-26T12:50:25.534Z,123.75
2018-09-26T12:51:25.541Z,123.75
2018-09-26T12:52:25.590Z,123.75
2018-09-26T12:53:25.563Z,123.75
2018-09-26T12:54:25.543Z,123.75
2018-09-26T12:55:25.548Z,123.75
2018-09-26T12:56:25.549Z,123.75
2018-09-26T12:57:25.560Z,123.75
2018-09-26T12:58:25.643Z,123.75
2018-09-26T12:59:25.555Z,123.75
2018-09-26T13:00:25.643Z,123.75
2018-09-26T13:01:25.574Z,123.75
2018-09-26T13:02:25.668Z,129.38
2018-09-26T13:03:25.628Z,123.75
2018-09-26T13:04:25.708Z,123.75
2018-09-26T13:05:25.578Z,129.38
2018-09-26T13:06:25.591Z,123.75
2018-09-26T13:07:25.576Z,123.75
2018-09-26T13:08:25.614Z,123.75
2018-09-26T13:09:25.580Z,118.13
2018-09-26T13:10:25.684Z,123.75
2018-09-26T13:11:25.585Z,123.75
2018-09-26T13:12:25.682Z,123.75
2018-09-26T13:13:25.589Z,123.75
2018-09-26T13:14:25.656Z,118.13
2018-09-26T13:15:25.614Z,123.75
2018-09-26T13:16:26.532Z,123.75
2018-09-26T13:17:25.602Z,123.75
2018-09-26T13:18:25.740Z,123.75
2018-09-26T13:19:25.607Z,129.38
2018-09-26T13:20:25.655Z,129.38
2018-09-26T13:21:25.616Z,123.75
2018-09-26T13:22:25.774Z,123.75
2018-09-26T13:23:25.630Z,129.38
2018-09-26T13:24:25.653Z,129.38
2018-09-26T13:25:25.773Z,123.75
2018-09-26T13:26:25.635Z,129.38
2018-09-26T13:27:25.657Z,123.75
2018-09-26T13:28:25.740Z,123.75
2018-09-26T13:29:25.634Z,123.75
2018-09-26T13:30:25.702Z,123.75
2018-09-26T13:31:25.639Z,118.13
2018-09-26T13:32:25.731Z,118.13
2018-09-26T13:33:25.665Z,123.75
2018-09-26T13:34:25.719Z,129.38
2018-09-26T13:35:25.658Z,129.38
2018-09-26T13:36:25.710Z,123.75
2018-09-26T13:37:25.787Z,123.75
2018-09-26T13:38:25.757Z,123.75
2018-09-26T13:39:25.696Z,118.13
2018-09-26T13:40:25.743Z,112.50
2018-09-26T13:41:25.662Z,118.13
2018-09-26T13:42:25.688Z,112.50
2018-09-26T13:43:25.669Z,112.50
2018-09-26T13:44:25.704Z,112.50
2018-09-26T13:45:25.880Z,118.13
2018-09-26T13:46:25.759Z,118.13
2018-09-26T13:47:25.681Z,118.13
2018-09-26T13:48:25.759Z,101.25
2018-09-26T13:49:25.683Z,101.25
2018-09-26T13:50:25.775Z,101.25
2018-09-26T13:51:25.690Z,101.25
2018-09-26T13:52:25.718Z,101.25
2018-09-26T13:53:25.856Z,106.88
2018-09-26T13:54:25.798Z,118.13
2018-09-26T13:55:25.702Z,118.13
2018-09-26T13:56:25.739Z,118.13
2018-09-26T13:57:25.708Z,123.75
2018-09-26T13:58:25.798Z,118.13
2018-09-26T13:59:25.708Z,118.13
2018-09-26T14:00:25.789Z,118.13
2018-09-26T14:01:25.778Z,106.88
2018-09-26T14:02:25.900Z,112.50
2018-09-26T14:03:25.720Z,118.13
2018-09-26T14:04:25.784Z,118.13
2018-09-26T14:06:18.790Z,118.13
2018-09-26T14:07:19.026Z,118.13
2018-09-26T14:09:12.745Z,123.75
2018-09-26T14:10:12.560Z,123.75
2018-09-26T14:12:05.213Z,118.13
2018-09-26T14:13:05.254Z,118.13
2018-09-26T14:14:58.136Z,112.50
2018-09-26T14:15:58.091Z,101.25
2018-09-26T14:17:50.950Z,95.63
2018-09-26T14:18:50.895Z,84.38
2018-09-26T14:20:43.872Z,84.38
2018-09-26T14:21:43.944Z,84.38
2018-09-26T14:23:36.823Z,90.00
2018-09-26T14:24:36.680Z,90.00
2018-09-26T14:26:33.045Z,84.38
2018-09-26T14:27:32.991Z,84.38
2018-09-26T14:29:25.927Z,78.75
2018-09-26T14:30:26.032Z,78.75
2018-09-26T14:31:25.930Z,78.75
2018-09-26T14:32:25.948Z,78.75
2018-09-26T14:33:26.553Z,78.75
2018-09-26T14:34:25.851Z,78.75
2018-09-26T14:35:25.917Z,78.75
2018-09-26T14:36:25.863Z,78.75
2018-09-26T14:37:25.860Z,78.75
2018-09-26T14:38:25.947Z,84.38
2018-09-26T14:39:25.957Z,78.75
2018-09-26T14:40:25.872Z,84.38
2018-09-26T14:41:25.946Z,78.75
2018-09-26T14:42:25.873Z,78.75
2018-09-26T14:43:25.882Z,78.75
2018-09-26T14:44:25.974Z,78.75
2018-09-26T14:45:26.010Z,84.38
2018-09-26T14:46:25.879Z,78.75
2018-09-26T14:47:25.945Z,78.75
2018-09-26T14:48:25.886Z,78.75
2018-09-26T14:49:25.988Z,78.75
2018-09-26T14:50:25.992Z,78.75
2018-09-26T14:51:25.891Z,78.75
2018-09-26T14:52:25.893Z,78.75
2018-09-26T14:53:25.970Z,73.13
2018-09-26T14:54:25.914Z,73.13
2018-09-26T14:55:33.107Z,73.13
2018-09-26T14:57:30.504Z,78.75